sensor_id;sensor_type;location;lat;lon;timestamp;temperature;humidity
19728;DHT22;10015;52.530;13.390;2022-12-07T05:20:14;4.20;99.90
19728;DHT22;10015;52.530;13.390;2022-12-07T05:24:00;4.30;99.90
19728;DHT22;10015;52.530;13.390;2022-12-07T05:26:59;4.40;99.90
19728;DHT22;10015;52.530;13.390;2022-12-07T05:30:28;4.40;99.90
19728;DHT22;10015;52.530;13.390;2022-12-07T05:34:05;4.40;99.90
19728;DHT22;10015;52.530;13.390;2022-12-07T05:37:07;4.40;99.90
19728;DHT22;10015;52.530;13.390;2022-12-07T05:40:16;4.40;99.90
19728;DHT22;10015;52.530;13.390;2022-12-07T05:43:47;4.50;99.90
19728;DHT22;10015;52.530;13.390;2022-12-07T05:50:50;4.50;99.90
19728;DHT22;10015;52.530;13.390;2022-12-07T05:53:47;4.60;99.90
19728;DHT22;10015;52.530;13.390;2022-12-07T05:59:57;4.50;99.90
19728;DHT22;10015;52.530;13.390;2022-12-07T06:03:25;4.60;99.90
19728;DHT22;10015;52.530;13.390;2022-12-07T06:09:15;4.60;99.90
19728;DHT22;10015;52.530;13.390;2022-12-07T06:15:36;4.70;99.90
19728;DHT22;10015;52.530;13.390;2022-12-07T06:18:21;4.70;99.90
19728;DHT22;10015;52.530;13.390;2022-12-07T06:21:42;4.80;99.90
19728;DHT22;10015;52.530;13.390;2022-12-07T06:24:58;4.80;99.90
19728;DHT22;10015;52.530;13.390;2022-12-07T06:31:58;4.80;99.90
19728;DHT22;10015;52.530;13.390;2022-12-07T06:34:39;4.90;99.90
19728;DHT22;10015;52.530;13.390;2022-12-07T06:37:50;4.90;99.90
19728;DHT22;10015;52.530;13.390;2022-12-07T06:40:37;4.90;99.90
19728;DHT22;10015;52.530;13.390;2022-12-07T06:43:36;4.80;99.90
19728;DHT22;10015;52.530;13.390;2022-12-07T06:46:26;4.80;99.90
19728;DHT22;10015;52.530;13.390;2022-12-07T06:49:10;4.90;99.90
19728;DHT22;10015;52.530;13.390;2022-12-07T06:52:54;4.90;99.90
19728;DHT22;10015;52.530;13.390;2022-12-07T06:55:26;4.90;99.90
19728;DHT22;10015;52.530;13.390;2022-12-07T06:58:28;4.90;99.90
19728;DHT22;10015;52.530;13.390;2022-12-07T07:01:34;5.00;99.90
19728;DHT22;10015;52.530;13.390;2022-12-07T07:04:48;5.00;99.90
19728;DHT22;10015;52.530;13.390;2022-12-07T07:07:46;5.00;99.90
19728;DHT22;10015;52.530;13.390;2022-12-07T07:10:34;5.00;99.90
19728;DHT22;10015;52.530;13.390;2022-12-07T07:13:48;5.00;99.90
19728;DHT22;10015;52.530;13.390;2022-12-07T07:16:52;5.10;99.90
19728;DHT22;10015;52.530;13.390;2022-12-07T07:20:12;5.10;99.90
19728;DHT22;10015;52.530;13.390;2022-12-07T07:26:21;5.10;99.90
19728;DHT22;10015;52.530;13.390;2022-12-07T07:29:50;5.10;99.90
19728;DHT22;10015;52.530;13.390;2022-12-07T07:32:56;5.10;99.90
19728;DHT22;10015;52.530;13.390;2022-12-07T07:35:41;5.10;99.90
19728;DHT22;10015;52.530;13.390;2022-12-07T07:41:49;5.00;99.90
19728;DHT22;10015;52.530;13.390;2022-12-07T07:44:49;5.10;99.90
19728;DHT22;10015;52.530;13.390;2022-12-07T07:54:37;5.10;99.90
19728;DHT22;10015;52.530;13.390;2022-12-07T08:01:30;5.00;99.90
19728;DHT22;10015;52.530;13.390;2022-12-07T08:04:39;5.00;99.90
19728;DHT22;10015;52.530;13.390;2022-12-07T08:08:11;4.90;99.90
19728;DHT22;10015;52.530;13.390;2022-12-07T08:11:20;4.80;99.90
19728;DHT22;10015;52.530;13.390;2022-12-07T08:14:48;5.00;99.90
19728;DHT22;10015;52.530;13.390;2022-12-07T08:18:05;5.00;99.90
19728;DHT22;10015;52.530;13.390;2022-12-07T08:21:07;4.90;99.90
19728;DHT22;10015;52.530;13.390;2022-12-07T08:24:16;4.90;99.90
19728;DHT22;10015;52.530;13.390;2022-12-07T08:31:29;5.00;99.90
19728;DHT22;10015;52.530;13.390;2022-12-07T08:34:39;5.00;99.90
19728;DHT22;10015;52.530;13.390;2022-12-07T08:38:23;4.90;99.90
19728;DHT22;10015;52.530;13.390;2022-12-07T08:41:34;4.90;99.90
19728;DHT22;10015;52.530;13.390;2022-12-07T08:44:46;5.00;99.90
19728;DHT22;10015;52.530;13.390;2022-12-07T08:49:13;5.10;99.90
19728;DHT22;10015;52.530;13.390;2022-12-07T08:56:25;4.90;99.90
19728;DHT22;10015;52.530;13.390;2022-12-07T08:59:32;4.90;99.90
19728;DHT22;10015;52.530;13.390;2022-12-07T09:02:25;4.90;99.90
19728;DHT22;10015;52.530;13.390;2022-12-07T09:08:54;4.80;99.90
19728;DHT22;10015;52.530;13.390;2022-12-07T09:12:02;5.00;99.90
19728;DHT22;10015;52.530;13.390;2022-12-07T09:15:00;5.10;99.90
19728;DHT22;10015;52.530;13.390;2022-12-07T09:22:02;5.00;99.90
19728;DHT22;10015;52.530;13.390;2022-12-07T09:24:45;5.20;99.90
19728;DHT22;10015;52.530;13.390;2022-12-07T09:27:48;5.00;99.90
19728;DHT22;10015;52.530;13.390;2022-12-07T09:31:05;4.90;99.90
19728;DHT22;10015;52.530;13.390;2022-12-07T09:34:17;4.90;99.90
19728;DHT22;10015;52.530;13.390;2022-12-07T09:37:37;4.90;99.90
19728;DHT22;10015;52.530;13.390;2022-12-07T09:40:55;4.90;99.90
19728;DHT22;10015;52.530;13.390;2022-12-07T09:43:48;4.80;99.90
19728;DHT22;10015;52.530;13.390;2022-12-07T09:46:27;4.70;99.90
19728;DHT22;10015;52.530;13.390;2022-12-07T09:49:56;4.70;99.90
19728;DHT22;10015;52.530;13.390;2022-12-07T09:52:32;4.70;99.90
19728;DHT22;10015;52.530;13.390;2022-12-07T09:55:19;4.70;99.90
19728;DHT22;10015;52.530;13.390;2022-12-07T09:58:32;4.60;99.90
19728;DHT22;10015;52.530;13.390;2022-12-07T10:01:34;4.60;99.90
19728;DHT22;10015;52.530;13.390;2022-12-07T10:04:41;4.50;99.90
19728;DHT22;10015;52.530;13.390;2022-12-07T10:08:13;4.40;99.90
19728;DHT22;10015;52.530;13.390;2022-12-07T10:11:04;4.40;99.90
19728;DHT22;10015;52.530;13.390;2022-12-07T10:14:26;4.50;99.90
19728;DHT22;10015;52.530;13.390;2022-12-07T10:17:44;4.50;99.90
19728;DHT22;10015;52.530;13.390;2022-12-07T10:29:36;5.30;99.90
19728;DHT22;10015;52.530;13.390;2022-12-07T10:35:34;5.30;99.90
19728;DHT22;10015;52.530;13.390;2022-12-07T10:38:34;5.40;99.90
19728;DHT22;10015;52.530;13.390;2022-12-07T10:44:30;5.40;99.90
19728;DHT22;10015;52.530;13.390;2022-12-07T10:51:27;5.30;99.90
19728;DHT22;10015;52.530;13.390;2022-12-07T11:09:21;5.30;99.90
19728;DHT22;10015;52.530;13.390;2022-12-07T11:17:09;5.00;99.90
19728;DHT22;10015;52.530;13.390;2022-12-07T11:20:29;5.00;99.90
19728;DHT22;10015;52.530;13.390;2022-12-07T11:23:48;5.00;99.90
19728;DHT22;10015;52.530;13.390;2022-12-07T11:37:28;5.10;99.90
19728;DHT22;10015;52.530;13.390;2022-12-07T11:40:55;5.10;99.90
19728;DHT22;10015;52.530;13.390;2022-12-07T11:44:22;5.10;99.90
19728;DHT22;10015;52.530;13.390;2022-12-07T11:48:03;5.00;99.90
19728;DHT22;10015;52.530;13.390;2022-12-07T11:51:02;5.20;99.90
19728;DHT22;10015;52.530;13.390;2022-12-07T11:58:03;5.20;99.90
19728;DHT22;10015;52.530;13.390;2022-12-07T12:01:36;5.30;99.90
19728;DHT22;10015;52.530;13.390;2022-12-07T12:21:36;5.50;99.90
19728;DHT22;10015;52.530;13.390;2022-12-07T12:24:51;5.60;99.90
19728;DHT22;10015;52.530;13.390;2022-12-07T12:27:57;5.50;99.90
19728;DHT22;10015;52.530;13.390;2022-12-07T12:33:32;5.80;99.90
19728;DHT22;10015;52.530;13.390;2022-12-07T12:36:43;5.70;99.90
19728;DHT22;10015;52.530;13.390;2022-12-07T12:39:21;5.60;99.90
19728;DHT22;10015;52.530;13.390;2022-12-07T12:42:00;5.60;99.90
19728;DHT22;10015;52.530;13.390;2022-12-07T12:45:04;5.60;99.90
19728;DHT22;10015;52.530;13.390;2022-12-07T12:47:53;5.60;99.90
19728;DHT22;10015;52.530;13.390;2022-12-07T12:51:35;5.60;99.90
19728;DHT22;10015;52.530;13.390;2022-12-07T12:54:11;5.50;99.90
19728;DHT22;10015;52.530;13.390;2022-12-07T13:03:29;5.60;99.90
19728;DHT22;10015;52.530;13.390;2022-12-07T13:09:41;5.70;99.90
19728;DHT22;10015;52.530;13.390;2022-12-07T13:12:37;5.80;99.90
19728;DHT22;10015;52.530;13.390;2022-12-07T13:18:21;5.80;99.90
19728;DHT22;10015;52.530;13.390;2022-12-07T13:21:43;5.80;99.90
19728;DHT22;10015;52.530;13.390;2022-12-07T13:24:18;5.80;99.90
19728;DHT22;10015;52.530;13.390;2022-12-07T13:27:25;5.70;99.90
19728;DHT22;10015;52.530;13.390;2022-12-07T13:30:23;5.80;99.90
19728;DHT22;10015;52.530;13.390;2022-12-07T13:33:30;5.90;99.90
19728;DHT22;10015;52.530;13.390;2022-12-07T13:36:22;5.80;99.90
19728;DHT22;10015;52.530;13.390;2022-12-07T13:38:57;6.20;99.90
19728;DHT22;10015;52.530;13.390;2022-12-07T13:41:28;6.30;99.90
19728;DHT22;10015;52.530;13.390;2022-12-07T13:44:44;6.20;99.90
19728;DHT22;10015;52.530;13.390;2022-12-07T13:47:31;6.20;99.90
19728;DHT22;10015;52.530;13.390;2022-12-07T13:50:59;6.10;99.90
19728;DHT22;10015;52.530;13.390;2022-12-07T13:53:36;6.00;99.90
19728;DHT22;10015;52.530;13.390;2022-12-07T13:56:27;6.00;99.90
19728;DHT22;10015;52.530;13.390;2022-12-07T13:58:57;5.90;99.90
19728;DHT22;10015;52.530;13.390;2022-12-07T14:01:45;5.80;99.90
19728;DHT22;10015;52.530;13.390;2022-12-07T14:04:47;5.80;99.90
19728;DHT22;10015;52.530;13.390;2022-12-07T14:08:25;5.80;99.90
19728;DHT22;10015;52.530;13.390;2022-12-07T14:11:02;5.80;99.90
19728;DHT22;10015;52.530;13.390;2022-12-07T14:14:24;5.80;99.90
19728;DHT22;10015;52.530;13.390;2022-12-07T14:17:26;5.70;99.90
19728;DHT22;10015;52.530;13.390;2022-12-07T14:20:34;5.80;99.90
19728;DHT22;10015;52.530;13.390;2022-12-07T14:23:31;5.70;99.90
19728;DHT22;10015;52.530;13.390;2022-12-07T14:26:31;5.60;99.90
19728;DHT22;10015;52.530;13.390;2022-12-07T14:32:37;5.60;99.90
19728;DHT22;10015;52.530;13.390;2022-12-07T14:35:17;5.60;99.90
19728;DHT22;10015;52.530;13.390;2022-12-07T14:37:51;5.60;99.90
19728;DHT22;10015;52.530;13.390;2022-12-07T14:40:36;5.60;99.90
19728;DHT22;10015;52.530;13.390;2022-12-07T14:43:40;5.70;99.90
19728;DHT22;10015;52.530;13.390;2022-12-07T14:46:14;5.60;99.90
19728;DHT22;10015;52.530;13.390;2022-12-07T14:49:47;5.70;99.90
19728;DHT22;10015;52.530;13.390;2022-12-07T14:56:34;5.60;99.90
19728;DHT22;10015;52.530;13.390;2022-12-07T14:59:01;5.60;99.90
19728;DHT22;10015;52.530;13.390;2022-12-07T15:01:28;5.60;99.90
19728;DHT22;10015;52.530;13.390;2022-12-07T15:03:55;5.70;99.90
19728;DHT22;10015;52.530;13.390;2022-12-07T15:06:21;5.60;99.90
19728;DHT22;10015;52.530;13.390;2022-12-07T15:08:47;5.60;99.90
19728;DHT22;10015;52.530;13.390;2022-12-07T15:11:15;5.50;99.90
19728;DHT22;10015;52.530;13.390;2022-12-07T15:13:42;5.40;99.90
19728;DHT22;10015;52.530;13.390;2022-12-07T15:16:27;5.40;99.90
19728;DHT22;10015;52.530;13.390;2022-12-07T15:18:54;5.40;99.90
19728;DHT22;10015;52.530;13.390;2022-12-07T15:21:20;5.40;99.90
19728;DHT22;10015;52.530;13.390;2022-12-07T15:23:47;5.40;99.90
19728;DHT22;10015;52.530;13.390;2022-12-07T15:26:13;5.30;99.90
19728;DHT22;10015;52.530;13.390;2022-12-07T15:28:40;5.40;99.90
19728;DHT22;10015;52.530;13.390;2022-12-07T15:31:16;5.30;99.90
19728;DHT22;10015;52.530;13.390;2022-12-07T15:33:43;5.30;99.90
19728;DHT22;10015;52.530;13.390;2022-12-07T15:36:20;5.40;99.90
19728;DHT22;10015;52.530;13.390;2022-12-07T15:38:47;5.40;99.90
19728;DHT22;10015;52.530;13.390;2022-12-07T15:41:17;5.40;99.90
19728;DHT22;10015;52.530;13.390;2022-12-07T15:43:43;5.30;99.90
19728;DHT22;10015;52.530;13.390;2022-12-07T15:46:39;5.30;99.90
19728;DHT22;10015;52.530;13.390;2022-12-07T15:49:15;5.20;99.90
19728;DHT22;10015;52.530;13.390;2022-12-07T15:51:43;5.20;99.90
19728;DHT22;10015;52.530;13.390;2022-12-07T15:54:16;5.20;99.90
19728;DHT22;10015;52.530;13.390;2022-12-07T15:56:43;5.30;99.90
19728;DHT22;10015;52.530;13.390;2022-12-07T15:59:09;5.50;99.90
19728;DHT22;10015;52.530;13.390;2022-12-07T16:01:35;5.70;99.90
19728;DHT22;10015;52.530;13.390;2022-12-07T16:04:01;5.60;99.90
19728;DHT22;10015;52.530;13.390;2022-12-07T16:06:28;5.40;99.90
19728;DHT22;10015;52.530;13.390;2022-12-07T16:08:54;5.40;99.90
19728;DHT22;10015;52.530;13.390;2022-12-07T16:11:20;5.40;99.90
19728;DHT22;10015;52.530;13.390;2022-12-07T16:13:46;5.20;99.90
19728;DHT22;10015;52.530;13.390;2022-12-07T16:16:15;5.10;99.90
19728;DHT22;10015;52.530;13.390;2022-12-07T16:18:46;5.10;99.90
19728;DHT22;10015;52.530;13.390;2022-12-07T16:21:15;5.10;99.90
19728;DHT22;10015;52.530;13.390;2022-12-07T16:23:42;5.10;99.90
19728;DHT22;10015;52.530;13.390;2022-12-07T16:26:11;5.00;99.90
19728;DHT22;10015;52.530;13.390;2022-12-07T16:28:38;4.90;99.90
19728;DHT22;10015;52.530;13.390;2022-12-07T16:31:15;4.90;99.90
19728;DHT22;10015;52.530;13.390;2022-12-07T16:33:42;5.00;99.90
19728;DHT22;10015;52.530;13.390;2022-12-07T16:36:10;4.90;99.90
19728;DHT22;10015;52.530;13.390;2022-12-07T16:38:37;4.80;99.90
19728;DHT22;10015;52.530;13.390;2022-12-07T16:41:05;4.70;99.90
19728;DHT22;10015;52.530;13.390;2022-12-07T16:43:32;4.70;99.90
19728;DHT22;10015;52.530;13.390;2022-12-07T16:45:58;4.70;99.90
19728;DHT22;10015;52.530;13.390;2022-12-07T16:48:24;4.70;99.90
19728;DHT22;10015;52.530;13.390;2022-12-07T16:50:51;4.70;99.90
19728;DHT22;10015;52.530;13.390;2022-12-07T16:53:21;4.80;99.90
19728;DHT22;10015;52.530;13.390;2022-12-07T16:55:48;4.80;99.90
19728;DHT22;10015;52.530;13.390;2022-12-07T16:58:16;4.80;99.90
19728;DHT22;10015;52.530;13.390;2022-12-07T17:00:43;4.70;99.90
19728;DHT22;10015;52.530;13.390;2022-12-07T17:03:10;4.70;99.90
19728;DHT22;10015;52.530;13.390;2022-12-07T17:05:39;4.70;99.90
19728;DHT22;10015;52.530;13.390;2022-12-07T17:08:05;4.60;99.90
19728;DHT22;10015;52.530;13.390;2022-12-07T17:10:33;4.60;99.90
19728;DHT22;10015;52.530;13.390;2022-12-07T17:13:02;4.60;99.90
19728;DHT22;10015;52.530;13.390;2022-12-07T17:15:28;4.60;99.90
19728;DHT22;10015;52.530;13.390;2022-12-07T17:17:57;4.60;99.90
19728;DHT22;10015;52.530;13.390;2022-12-07T17:20:26;4.60;99.90
19728;DHT22;10015;52.530;13.390;2022-12-07T17:22:52;4.50;99.90
19728;DHT22;10015;52.530;13.390;2022-12-07T17:25:19;4.50;99.90
19728;DHT22;10015;52.530;13.390;2022-12-07T17:27:46;4.60;99.90
19728;DHT22;10015;52.530;13.390;2022-12-07T17:30:13;4.60;99.90
19728;DHT22;10015;52.530;13.390;2022-12-07T17:32:39;4.60;99.90
19728;DHT22;10015;52.530;13.390;2022-12-07T17:35:05;4.70;99.90
19728;DHT22;10015;52.530;13.390;2022-12-07T17:37:32;4.70;99.90
19728;DHT22;10015;52.530;13.390;2022-12-07T17:39:58;4.80;99.90
19728;DHT22;10015;52.530;13.390;2022-12-07T17:42:25;4.80;99.90
19728;DHT22;10015;52.530;13.390;2022-12-07T17:45:07;4.60;99.90
19728;DHT22;10015;52.530;13.390;2022-12-07T17:47:35;4.50;99.90
19728;DHT22;10015;52.530;13.390;2022-12-07T17:50:01;4.50;99.90
19728;DHT22;10015;52.530;13.390;2022-12-07T17:52:27;4.50;99.90
19728;DHT22;10015;52.530;13.390;2022-12-07T17:55:12;4.50;99.90
19728;DHT22;10015;52.530;13.390;2022-12-07T17:57:38;4.60;99.90
19728;DHT22;10015;52.530;13.390;2022-12-07T18:00:05;4.50;99.90
19728;DHT22;10015;52.530;13.390;2022-12-07T18:02:37;4.50;99.90
19728;DHT22;10015;52.530;13.390;2022-12-07T18:05:04;4.50;99.90
19728;DHT22;10015;52.530;13.390;2022-12-07T18:07:30;4.50;99.90
19728;DHT22;10015;52.530;13.390;2022-12-07T18:09:56;4.50;99.90
19728;DHT22;10015;52.530;13.390;2022-12-07T18:12:22;4.50;99.90
19728;DHT22;10015;52.530;13.390;2022-12-07T18:14:48;4.60;99.90
19728;DHT22;10015;52.530;13.390;2022-12-07T18:17:16;4.60;99.90
19728;DHT22;10015;52.530;13.390;2022-12-07T18:19:43;4.60;99.90
19728;DHT22;10015;52.530;13.390;2022-12-07T18:22:08;4.60;99.90
19728;DHT22;10015;52.530;13.390;2022-12-07T18:24:35;4.70;99.90
19728;DHT22;10015;52.530;13.390;2022-12-07T18:27:04;4.70;99.90
19728;DHT22;10015;52.530;13.390;2022-12-07T18:29:30;4.50;99.90
19728;DHT22;10015;52.530;13.390;2022-12-07T18:31:56;4.50;99.90
19728;DHT22;10015;52.530;13.390;2022-12-07T18:34:24;4.50;99.90
19728;DHT22;10015;52.530;13.390;2022-12-07T18:36:53;4.50;99.90
19728;DHT22;10015;52.530;13.390;2022-12-07T18:39:19;4.50;99.90
19728;DHT22;10015;52.530;13.390;2022-12-07T18:41:46;4.50;99.90
19728;DHT22;10015;52.530;13.390;2022-12-07T18:44:12;4.60;99.90
19728;DHT22;10015;52.530;13.390;2022-12-07T18:46:38;4.60;99.90
19728;DHT22;10015;52.530;13.390;2022-12-07T18:49:08;4.60;99.90
19728;DHT22;10015;52.530;13.390;2022-12-07T18:51:36;4.60;99.90
19728;DHT22;10015;52.530;13.390;2022-12-07T18:54:03;4.60;99.90
19728;DHT22;10015;52.530;13.390;2022-12-07T18:56:29;4.60;99.90
19728;DHT22;10015;52.530;13.390;2022-12-07T18:58:58;4.60;99.90
19728;DHT22;10015;52.530;13.390;2022-12-07T19:01:45;4.60;99.90
19728;DHT22;10015;52.530;13.390;2022-12-07T19:04:11;4.50;99.90
19728;DHT22;10015;52.530;13.390;2022-12-07T19:06:39;4.50;99.90
19728;DHT22;10015;52.530;13.390;2022-12-07T19:09:06;4.50;99.90
19728;DHT22;10015;52.530;13.390;2022-12-07T19:11:32;4.50;99.90
19728;DHT22;10015;52.530;13.390;2022-12-07T19:16:52;4.40;99.90
19728;DHT22;10015;52.530;13.390;2022-12-07T19:19:20;4.30;99.90
19728;DHT22;10015;52.530;13.390;2022-12-07T19:21:48;4.30;99.90
19728;DHT22;10015;52.530;13.390;2022-12-07T19:24:15;4.30;99.90
19728;DHT22;10015;52.530;13.390;2022-12-07T19:26:41;4.40;99.90
19728;DHT22;10015;52.530;13.390;2022-12-07T19:29:07;4.40;99.90
19728;DHT22;10015;52.530;13.390;2022-12-07T19:31:34;4.40;99.90
19728;DHT22;10015;52.530;13.390;2022-12-07T19:34:11;4.40;99.90
19728;DHT22;10015;52.530;13.390;2022-12-07T19:36:38;4.40;99.90
19728;DHT22;10015;52.530;13.390;2022-12-07T19:39:05;4.30;99.90
19728;DHT22;10015;52.530;13.390;2022-12-07T19:41:31;4.30;99.90
19728;DHT22;10015;52.530;13.390;2022-12-07T19:44:04;4.20;99.90
19728;DHT22;10015;52.530;13.390;2022-12-07T19:46:32;4.20;99.90
19728;DHT22;10015;52.530;13.390;2022-12-07T19:48:59;4.20;99.90
19728;DHT22;10015;52.530;13.390;2022-12-07T19:51:28;4.20;99.90
19728;DHT22;10015;52.530;13.390;2022-12-07T19:54:00;4.20;99.90
19728;DHT22;10015;52.530;13.390;2022-12-07T19:56:28;4.20;99.90
19728;DHT22;10015;52.530;13.390;2022-12-07T19:58:57;4.20;99.90
19728;DHT22;10015;52.530;13.390;2022-12-07T20:01:26;4.30;99.90
19728;DHT22;10015;52.530;13.390;2022-12-07T20:03:52;4.30;99.90
19728;DHT22;10015;52.530;13.390;2022-12-07T20:06:19;4.30;99.90
19728;DHT22;10015;52.530;13.390;2022-12-07T20:08:46;4.30;99.90
19728;DHT22;10015;52.530;13.390;2022-12-07T20:11:14;4.20;99.90
19728;DHT22;10015;52.530;13.390;2022-12-07T20:14:11;4.20;99.90
19728;DHT22;10015;52.530;13.390;2022-12-07T20:16:38;4.20;99.90
19728;DHT22;10015;52.530;13.390;2022-12-07T20:19:09;4.20;99.90
19728;DHT22;10015;52.530;13.390;2022-12-07T20:21:36;4.20;99.90
19728;DHT22;10015;52.530;13.390;2022-12-07T20:24:04;4.20;99.90
19728;DHT22;10015;52.530;13.390;2022-12-07T20:26:33;4.20;99.90
19728;DHT22;10015;52.530;13.390;2022-12-07T20:28:59;4.20;99.90
19728;DHT22;10015;52.530;13.390;2022-12-07T20:31:25;4.20;99.90
19728;DHT22;10015;52.530;13.390;2022-12-07T20:33:51;4.20;99.90
19728;DHT22;10015;52.530;13.390;2022-12-07T20:36:18;4.20;99.90
19728;DHT22;10015;52.530;13.390;2022-12-07T20:38:44;4.20;99.90
19728;DHT22;10015;52.530;13.390;2022-12-07T20:41:12;4.10;99.90
19728;DHT22;10015;52.530;13.390;2022-12-07T20:43:59;4.10;99.90
19728;DHT22;10015;52.530;13.390;2022-12-07T20:46:25;4.10;99.90
19728;DHT22;10015;52.530;13.390;2022-12-07T20:48:51;4.10;99.90
19728;DHT22;10015;52.530;13.390;2022-12-07T20:51:18;4.10;99.90
19728;DHT22;10015;52.530;13.390;2022-12-07T20:53:44;4.00;99.90
19728;DHT22;10015;52.530;13.390;2022-12-07T20:56:36;4.00;99.90
19728;DHT22;10015;52.530;13.390;2022-12-07T20:59:04;4.10;99.90
19728;DHT22;10015;52.530;13.390;2022-12-07T21:01:31;4.00;99.90
19728;DHT22;10015;52.530;13.390;2022-12-07T21:03:59;4.10;99.90
19728;DHT22;10015;52.530;13.390;2022-12-07T21:06:26;4.10;99.90
19728;DHT22;10015;52.530;13.390;2022-12-07T21:08:54;4.00;99.90
19728;DHT22;10015;52.530;13.390;2022-12-07T21:11:22;4.10;99.90
19728;DHT22;10015;52.530;13.390;2022-12-07T21:13:48;4.00;99.90
19728;DHT22;10015;52.530;13.390;2022-12-07T21:16:20;4.10;99.90
19728;DHT22;10015;52.530;13.390;2022-12-07T21:18:47;4.10;99.90
19728;DHT22;10015;52.530;13.390;2022-12-07T21:21:16;4.10;99.90
19728;DHT22;10015;52.530;13.390;2022-12-07T21:23:45;4.10;99.90
19728;DHT22;10015;52.530;13.390;2022-12-07T21:26:14;3.90;99.90
19728;DHT22;10015;52.530;13.390;2022-12-07T21:28:41;3.90;99.90
19728;DHT22;10015;52.530;13.390;2022-12-07T21:31:07;3.90;99.90
19728;DHT22;10015;52.530;13.390;2022-12-07T21:33:34;3.90;99.90
19728;DHT22;10015;52.530;13.390;2022-12-07T21:36:06;3.90;99.90
19728;DHT22;10015;52.530;13.390;2022-12-07T21:38:32;3.90;99.90
19728;DHT22;10015;52.530;13.390;2022-12-07T21:40:59;4.00;99.90
19728;DHT22;10015;52.530;13.390;2022-12-07T21:43:25;4.00;99.90
19728;DHT22;10015;52.530;13.390;2022-12-07T21:45:52;3.90;99.90
19728;DHT22;10015;52.530;13.390;2022-12-07T21:48:18;4.00;99.90
19728;DHT22;10015;52.530;13.390;2022-12-07T21:50:45;4.00;99.90
19728;DHT22;10015;52.530;13.390;2022-12-07T21:53:13;4.00;99.90
19728;DHT22;10015;52.530;13.390;2022-12-07T21:55:43;4.00;99.90
19728;DHT22;10015;52.530;13.390;2022-12-07T21:58:10;4.00;99.90
19728;DHT22;10015;52.530;13.390;2022-12-07T22:00:36;4.00;99.90
19728;DHT22;10015;52.530;13.390;2022-12-07T22:03:03;4.00;99.90
19728;DHT22;10015;52.530;13.390;2022-12-07T22:05:29;4.00;99.90
19728;DHT22;10015;52.530;13.390;2022-12-07T22:07:55;4.00;99.90
19728;DHT22;10015;52.530;13.390;2022-12-07T22:10:21;4.00;99.90
19728;DHT22;10015;52.530;13.390;2022-12-07T22:12:57;3.90;99.90
19728;DHT22;10015;52.530;13.390;2022-12-07T22:15:27;3.90;99.90
19728;DHT22;10015;52.530;13.390;2022-12-07T22:17:53;3.90;99.90
19728;DHT22;10015;52.530;13.390;2022-12-07T22:20:21;3.90;99.90
19728;DHT22;10015;52.530;13.390;2022-12-07T22:22:48;3.90;99.90
19728;DHT22;10015;52.530;13.390;2022-12-07T22:25:14;3.90;99.90
19728;DHT22;10015;52.530;13.390;2022-12-07T22:27:41;3.90;99.90
19728;DHT22;10015;52.530;13.390;2022-12-07T22:30:09;3.90;99.90
19728;DHT22;10015;52.530;13.390;2022-12-07T22:32:37;3.90;99.90
19728;DHT22;10015;52.530;13.390;2022-12-07T22:35:04;3.90;99.90
19728;DHT22;10015;52.530;13.390;2022-12-07T22:37:30;3.90;99.90
19728;DHT22;10015;52.530;13.390;2022-12-07T22:39:57;3.90;99.90
19728;DHT22;10015;52.530;13.390;2022-12-07T22:42:23;3.90;99.90
19728;DHT22;10015;52.530;13.390;2022-12-07T22:44:49;4.00;99.90
19728;DHT22;10015;52.530;13.390;2022-12-07T22:47:15;3.90;99.90
19728;DHT22;10015;52.530;13.390;2022-12-07T22:49:41;3.90;99.90
19728;DHT22;10015;52.530;13.390;2022-12-07T22:52:08;4.00;99.90
19728;DHT22;10015;52.530;13.390;2022-12-07T22:54:34;4.00;99.90
19728;DHT22;10015;52.530;13.390;2022-12-07T22:57:01;4.00;99.90
19728;DHT22;10015;52.530;13.390;2022-12-07T22:59:27;4.00;99.90
19728;DHT22;10015;52.530;13.390;2022-12-07T23:01:53;4.00;99.90
19728;DHT22;10015;52.530;13.390;2022-12-07T23:04:19;4.00;99.90
19728;DHT22;10015;52.530;13.390;2022-12-07T23:06:45;4.00;99.90
19728;DHT22;10015;52.530;13.390;2022-12-07T23:09:12;4.00;99.90
19728;DHT22;10015;52.530;13.390;2022-12-07T23:11:40;4.00;99.90
19728;DHT22;10015;52.530;13.390;2022-12-07T23:14:31;3.90;99.90
19728;DHT22;10015;52.530;13.390;2022-12-07T23:16:58;3.90;99.90
19728;DHT22;10015;52.530;13.390;2022-12-07T23:19:25;3.90;99.90
19728;DHT22;10015;52.530;13.390;2022-12-07T23:21:51;3.90;99.90
19728;DHT22;10015;52.530;13.390;2022-12-07T23:24:17;3.90;99.90
19728;DHT22;10015;52.530;13.390;2022-12-07T23:26:44;3.80;99.90
19728;DHT22;10015;52.530;13.390;2022-12-07T23:29:11;3.80;99.90
19728;DHT22;10015;52.530;13.390;2022-12-07T23:31:37;3.80;99.90
19728;DHT22;10015;52.530;13.390;2022-12-07T23:34:03;3.80;99.90
19728;DHT22;10015;52.530;13.390;2022-12-07T23:36:29;3.80;99.90
19728;DHT22;10015;52.530;13.390;2022-12-07T23:38:57;3.80;99.90
19728;DHT22;10015;52.530;13.390;2022-12-07T23:41:28;3.80;99.90
19728;DHT22;10015;52.530;13.390;2022-12-07T23:43:56;3.80;99.90
19728;DHT22;10015;52.530;13.390;2022-12-07T23:46:28;3.80;99.90
19728;DHT22;10015;52.530;13.390;2022-12-07T23:48:55;3.80;99.90
19728;DHT22;10015;52.530;13.390;2022-12-07T23:51:22;3.80;99.90
19728;DHT22;10015;52.530;13.390;2022-12-07T23:53:50;3.80;99.90
19728;DHT22;10015;52.530;13.390;2022-12-07T23:56:21;3.80;99.90
19728;DHT22;10015;52.530;13.390;2022-12-07T23:58:49;3.70;99.90
